createdAt,value
2018-05-06T19:28:33.691Z,45.69
2018-05-06T19:31:01.215Z,45.52
2018-05-06T19:33:28.728Z,45.50
2018-05-06T19:35:56.272Z,45.17
2018-05-06T19:38:23.782Z,45.32
2018-05-06T19:40:51.338Z,45.63
2018-05-06T19:43:18.848Z,45.46
2018-05-06T19:45:46.321Z,45.47
2018-05-06T19:48:13.852Z,45.99
2018-05-06T19:50:41.384Z,46.03
2018-05-06T19:53:08.917Z,46.46
2018-05-06T19:55:36.423Z,46.22
2018-05-06T19:58:03.928Z,46.51
2018-05-06T20:00:31.429Z,46.53
2018-05-06T20:02:58.976Z,47.08
2018-05-06T20:05:26.478Z,47.28
2018-05-06T20:07:54.004Z,47.67
2018-05-06T20:10:21.526Z,47.37
2018-05-06T20:12:49.070Z,47.37
2018-05-06T20:15:16.541Z,47.74
2018-05-06T20:17:44.015Z,47.84
2018-05-06T20:20:11.588Z,48.89
2018-05-06T20:22:39.060Z,48.90
2018-05-06T20:25:06.579Z,49.08
2018-05-06T20:27:34.053Z,49.02
2018-05-06T20:30:01.567Z,48.55
2018-05-06T20:32:29.113Z,48.29
2018-05-06T20:34:56.600Z,48.60
2018-05-06T20:37:24.137Z,48.88
2018-05-06T20:39:51.708Z,48.41
2018-05-06T20:42:19.205Z,48.79
2018-05-06T20:44:46.810Z,48.36
2018-05-06T20:47:14.287Z,49.47
2018-05-06T20:49:42.251Z,49.93
2018-05-06T20:52:09.731Z,49.26
2018-05-06T20:54:37.208Z,49.38
2018-05-06T20:57:04.941Z,48.79
2018-05-06T20:59:32.418Z,49.88
2018-05-06T21:02:00.515Z,49.70
2018-05-06T21:04:28.040Z,49.89
2018-05-06T21:06:55.538Z,49.98
2018-05-06T21:09:23.755Z,50.05
2018-05-06T21:11:51.232Z,50.06
2018-05-06T21:14:18.718Z,50.00
2018-05-06T21:16:46.232Z,49.64
2018-05-06T21:19:13.732Z,49.24
2018-05-06T21:21:41.636Z,50.86
2018-05-06T21:24:09.142Z,51.68
2018-05-06T21:26:36.609Z,51.78
2018-05-06T21:29:04.104Z,52.69
2018-05-06T21:31:31.590Z,53.58
2018-05-06T21:33:59.207Z,53.63
2018-05-06T21:36:26.708Z,54.36
2018-05-06T21:38:54.189Z,53.77
2018-05-06T21:41:21.685Z,54.40
2018-05-06T21:43:49.238Z,54.60
2018-05-06T21:46:16.766Z,54.91
2018-05-06T21:48:44.244Z,54.78
2018-05-06T21:51:11.811Z,54.77
2018-05-06T21:53:39.325Z,55.06
2018-05-06T21:56:06.803Z,54.81
2018-05-06T21:58:41.191Z,55.11
2018-05-06T22:01:12.256Z,55.62
2018-05-06T22:03:39.787Z,55.55
2018-05-06T22:06:07.337Z,54.87
2018-05-06T22:08:34.855Z,55.40
2018-05-06T22:11:02.348Z,55.76
2018-05-06T22:13:29.853Z,55.16
2018-05-06T22:15:57.456Z,55.55
2018-05-06T22:18:24.954Z,56.13
2018-05-06T22:20:52.499Z,56.22
2018-05-06T22:23:20.032Z,56.33
2018-05-06T22:25:48.657Z,55.57
2018-05-06T22:28:17.376Z,56.48
2018-05-06T22:30:47.780Z,56.05
2018-05-06T22:33:15.570Z,57.06
2018-05-06T22:35:44.043Z,57.32
2018-05-06T22:38:12.224Z,56.64
2018-05-06T22:40:39.873Z,57.62
2018-05-06T22:43:17.228Z,57.69
2018-05-06T22:45:46.354Z,58.30
2018-05-06T22:48:15.678Z,57.73
2018-05-06T22:50:43.180Z,58.13
2018-05-06T22:53:10.702Z,58.08
2018-05-06T22:55:38.196Z,58.46
2018-05-06T22:58:05.716Z,58.17
2018-05-06T23:00:33.240Z,57.87
2018-05-06T23:03:00.739Z,58.80
2018-05-06T23:05:28.304Z,58.34
2018-05-06T23:07:55.763Z,58.86
2018-05-06T23:10:23.314Z,58.75
2018-05-06T23:12:50.825Z,59.41
2018-05-06T23:15:18.345Z,59.13
2018-05-06T23:17:45.873Z,59.58
2018-05-06T23:20:13.384Z,59.21
2018-05-06T23:22:40.912Z,58.91
2018-05-06T23:25:08.441Z,58.64
2018-05-06T23:27:35.926Z,59.88
2018-05-06T23:30:03.468Z,60.01
2018-05-06T23:32:32.169Z,59.72
2018-05-06T23:34:59.672Z,58.93
2018-05-06T23:37:30.651Z,59.34
2018-05-06T23:39:58.181Z,59.27
2018-05-06T23:42:25.683Z,60.48
2018-05-06T23:44:53.275Z,59.84
2018-05-06T23:47:20.788Z,60.09
2018-05-06T23:49:48.307Z,59.93
2018-05-06T23:52:15.817Z,60.22
2018-05-06T23:54:43.451Z,60.66
2018-05-06T23:57:10.912Z,60.54
2018-05-06T23:59:38.436Z,60.17
